createdAt,value
2019-02-12T00:00:50.977Z,3.17
2019-02-12T00:03:19.442Z,2.60
2019-02-12T00:05:47.982Z,2.60
2019-02-12T00:08:16.513Z,2.33
2019-02-12T00:10:46.055Z,3.35
2019-02-12T00:13:14.594Z,2.33
2019-02-12T00:15:43.195Z,3.12
2019-02-12T00:18:11.757Z,3.22
2019-02-12T00:20:40.296Z,2.85
2019-02-12T00:23:08.838Z,2.83
2019-02-12T00:25:37.367Z,4.08
2019-02-12T00:28:05.949Z,3.12
2019-02-12T00:30:34.759Z,2.47
2019-02-12T00:33:03.301Z,2.98
2019-02-12T00:35:31.833Z,3.22
2019-02-12T00:38:00.373Z,3.30
2019-02-12T00:40:28.851Z,3.92
2019-02-12T00:42:57.302Z,2.77
2019-02-12T00:45:27.559Z,2.87
2019-02-12T00:47:56.076Z,3.55
2019-02-12T00:50:24.582Z,2.60
2019-02-12T00:52:53.177Z,2.67
2019-02-12T00:55:21.767Z,2.55
2019-02-12T00:57:50.421Z,2.65
2019-02-12T01:00:18.976Z,2.40
2019-02-12T01:02:47.458Z,3.02
2019-02-12T01:05:16.035Z,2.83
2019-02-12T01:07:44.498Z,2.40
2019-02-12T01:10:13.098Z,3.10
2019-02-12T01:12:41.641Z,3.00
2019-02-12T01:15:11.620Z,2.22
2019-02-12T01:17:40.168Z,2.90
2019-02-12T01:20:14.831Z,3.20
2019-02-12T01:22:43.292Z,3.30
2019-02-12T01:25:11.995Z,2.60
2019-02-12T01:27:40.538Z,3.47
2019-02-12T01:30:10.806Z,2.58
2019-02-12T01:32:39.408Z,3.25
2019-02-12T01:35:07.921Z,3.08
2019-02-12T01:37:36.437Z,3.72
2019-02-12T01:40:05.962Z,3.00
2019-02-12T01:42:34.481Z,3.47
2019-02-12T01:45:02.938Z,4.33
2019-02-12T01:47:31.457Z,4.42
2019-02-12T01:49:59.933Z,6.12
2019-02-12T01:52:28.383Z,5.62
2019-02-12T01:54:56.846Z,7.17
2019-02-12T01:57:25.385Z,4.25
2019-02-12T01:59:53.996Z,4.25
2019-02-12T02:02:22.589Z,4.17
2019-02-12T02:04:51.320Z,2.45
2019-02-12T02:07:19.848Z,3.17
2019-02-12T02:09:48.418Z,2.58
2019-02-12T02:12:16.934Z,2.55
2019-02-12T02:14:45.541Z,2.70
2019-02-12T02:17:14.059Z,2.67
2019-02-12T02:19:42.571Z,3.85
2019-02-12T02:22:11.153Z,2.75
2019-02-12T02:24:39.693Z,2.47
2019-02-12T02:27:08.281Z,2.20
2019-02-12T02:29:36.809Z,2.60
2019-02-12T02:32:05.321Z,2.77
2019-02-12T02:34:33.876Z,2.08
2019-02-12T02:37:02.403Z,2.62
2019-02-12T02:39:30.942Z,1.98
2019-02-12T02:41:59.461Z,3.35
2019-02-12T02:44:27.918Z,2.35
2019-02-12T02:46:56.525Z,3.40
2019-02-12T02:49:25.054Z,2.70
2019-02-12T02:51:54.258Z,3.08
2019-02-12T02:54:22.821Z,2.15
2019-02-12T02:56:51.539Z,4.55
2019-02-12T02:59:20.042Z,2.45
2019-02-12T03:01:48.595Z,2.27
2019-02-12T03:04:36.405Z,2.20
2019-02-12T03:07:05.023Z,3.05
2019-02-12T03:09:33.725Z,2.40
2019-02-12T03:12:02.255Z,2.72
2019-02-12T03:14:30.770Z,3.17
2019-02-12T03:16:59.329Z,3.08
2019-02-12T03:19:28.230Z,2.75
2019-02-12T03:22:03.460Z,2.70
2019-02-12T03:24:27.178Z,1.92
2019-02-12T03:26:55.853Z,3.33
2019-02-12T03:29:24.468Z,3.37
2019-02-12T03:31:53.013Z,3.55
2019-02-12T03:34:21.569Z,2.17
2019-02-12T03:36:50.184Z,2.37
2019-02-12T03:39:18.742Z,3.55
2019-02-12T03:41:47.252Z,3.00
2019-02-12T03:44:15.800Z,2.70
2019-02-12T03:46:44.314Z,2.80
2019-02-12T03:49:12.793Z,2.20
2019-02-12T03:51:41.278Z,2.80
2019-02-12T03:54:09.924Z,3.52
2019-02-12T03:56:38.439Z,3.08
2019-02-12T03:59:06.978Z,3.42
2019-02-12T04:01:35.567Z,3.77
2019-02-12T04:04:04.210Z,5.55
2019-02-12T04:06:32.667Z,4.22
2019-02-12T04:09:01.208Z,3.95
2019-02-12T04:11:29.759Z,3.60
2019-02-12T04:13:58.293Z,2.70
2019-02-12T04:16:26.746Z,3.05
2019-02-12T04:18:55.282Z,2.98
2019-02-12T04:21:29.824Z,2.83
2019-02-12T04:23:58.332Z,2.60
2019-02-12T04:26:26.873Z,2.40
2019-02-12T04:28:55.493Z,2.05
2019-02-12T04:31:24.076Z,2.65
2019-02-12T04:33:52.643Z,2.37
2019-02-12T04:36:21.360Z,2.70
2019-02-12T04:38:50.291Z,1.82
2019-02-12T04:41:18.830Z,2.05
2019-02-12T04:43:47.329Z,2.52
2019-02-12T04:46:15.935Z,2.83
2019-02-12T04:48:44.421Z,2.65
2019-02-12T04:51:12.853Z,2.20
2019-02-12T04:53:41.440Z,2.55
2019-02-12T04:56:09.923Z,5.58
2019-02-12T04:58:38.444Z,3.17
2019-02-12T05:01:06.998Z,2.47
2019-02-12T05:03:35.525Z,3.12
2019-02-12T05:06:04.116Z,2.58
2019-02-12T05:08:34.149Z,2.98
2019-02-12T05:11:03.879Z,2.62
2019-02-12T05:13:32.422Z,2.62
2019-02-12T05:16:01.045Z,2.55
2019-02-12T05:18:29.570Z,2.22
2019-02-12T05:20:58.013Z,3.00
2019-02-12T05:23:26.535Z,3.65
2019-02-12T05:25:55.033Z,1.72
2019-02-12T05:28:23.634Z,2.70
2019-02-12T05:30:52.238Z,2.98
2019-02-12T05:33:20.815Z,2.37
2019-02-12T05:35:49.337Z,3.52
2019-02-12T05:38:17.887Z,2.65
2019-02-12T05:40:46.342Z,4.60
2019-02-12T05:43:14.903Z,4.45
2019-02-12T05:45:43.427Z,4.03
2019-02-12T05:48:12.003Z,5.45
2019-02-12T05:50:40.506Z,5.78
2019-02-12T05:53:09.187Z,5.37
2019-02-12T05:55:37.706Z,5.60
2019-02-12T05:58:06.351Z,7.03
2019-02-12T06:00:34.888Z,6.83
2019-02-12T06:03:03.460Z,5.65
2019-02-12T06:05:31.977Z,5.55
2019-02-12T06:08:00.420Z,6.12
2019-02-12T06:10:29.088Z,7.33
2019-02-12T06:12:57.614Z,9.28
2019-02-12T06:15:26.241Z,8.55
2019-02-12T06:17:54.798Z,10.13
2019-02-12T06:20:23.332Z,11.73
2019-02-12T06:22:51.833Z,10.85
2019-02-12T06:25:20.524Z,8.90
2019-02-12T06:27:49.140Z,6.00
2019-02-12T06:30:17.764Z,3.00
2019-02-12T06:32:46.280Z,2.77
2019-02-12T06:35:14.857Z,3.08
2019-02-12T06:37:43.459Z,2.55
2019-02-12T06:40:31.268Z,3.10
2019-02-12T06:43:01.522Z,2.70
2019-02-12T06:45:30.237Z,3.27
2019-02-12T06:47:58.764Z,2.52
2019-02-12T06:50:27.304Z,3.10
2019-02-12T06:52:56.012Z,3.27
2019-02-12T06:55:24.472Z,3.08
2019-02-12T06:57:53.128Z,3.20
2019-02-12T07:00:24.251Z,2.10
2019-02-12T07:02:57.082Z,2.50
2019-02-12T07:05:25.660Z,3.27
2019-02-12T07:07:56.454Z,2.92
2019-02-12T07:10:25.048Z,2.67
2019-02-12T07:13:13.513Z,4.50
2019-02-12T07:15:42.187Z,2.98
2019-02-12T07:18:12.304Z,2.90
2019-02-12T07:20:42.390Z,108.97
2019-02-12T07:23:25.334Z,3.25
2019-02-12T07:25:58.153Z,2.50
2019-02-12T07:28:28.209Z,3.02
2019-02-12T07:31:13.428Z,3.20
2019-02-12T07:34:01.435Z,3.17
2019-02-12T07:36:37.443Z,3.10
2019-02-12T07:39:16.688Z,3.92
2019-02-12T07:41:46.791Z,3.35
2019-02-12T07:44:33.318Z,3.77
2019-02-12T07:47:03.389Z,3.58
2019-02-12T07:49:36.452Z,3.37
2019-02-12T07:52:12.265Z,3.12
2019-02-12T07:54:48.053Z,3.02
2019-02-12T07:57:34.717Z,2.90
2019-02-12T08:00:22.265Z,2.60
2019-02-12T08:02:55.335Z,3.35
2019-02-12T08:05:31.448Z,3.08
2019-02-12T08:08:16.844Z,3.02
2019-02-12T08:10:46.972Z,3.50
2019-02-12T08:13:19.899Z,3.70
2019-02-12T08:15:50.092Z,3.12
2019-02-12T08:18:20.186Z,3.60
2019-02-12T08:20:50.301Z,3.87
2019-02-12T08:23:48.663Z,4.35
2019-02-12T08:26:18.855Z,3.67
2019-02-12T08:29:01.116Z,3.17
2019-02-12T08:31:50.412Z,2.72
2019-02-12T08:34:38.549Z,3.75
2019-02-12T08:37:08.620Z,3.12
2019-02-12T08:39:41.546Z,3.72
2019-02-12T08:42:11.662Z,4.00
2019-02-12T08:44:47.692Z,4.05
2019-02-12T08:47:17.777Z,3.72
2019-02-12T08:49:47.837Z,3.55
2019-02-12T08:52:23.646Z,3.55
2019-02-12T08:54:53.692Z,3.83
2019-02-12T08:57:38.854Z,4.08
2019-02-12T09:00:11.878Z,4.25
2019-02-12T09:02:41.924Z,4.67
2019-02-12T09:05:11.945Z,4.08
2019-02-12T09:07:42.002Z,3.27
2019-02-12T09:10:12.124Z,4.00
2019-02-12T09:12:48.562Z,4.33
2019-02-12T09:15:21.662Z,3.60
2019-02-12T09:18:00.932Z,3.58
2019-02-12T09:20:49.302Z,3.72
2019-02-12T09:23:28.643Z,3.92
2019-02-12T09:25:58.680Z,3.77
2019-02-12T09:28:28.809Z,4.25
2019-02-12T09:31:19.946Z,3.65
2019-02-12T09:37:04.323Z,3.10
2019-02-12T09:39:43.076Z,2.55
2019-02-12T09:42:16.433Z,2.87
2019-02-12T09:44:49.366Z,3.30
2019-02-12T09:47:31.178Z,4.20
2019-02-12T09:50:03.808Z,3.72
2019-02-12T09:52:33.878Z,3.55
2019-02-12T09:55:03.929Z,2.87
2019-02-12T09:57:47.781Z,2.95
2019-02-12T10:00:20.968Z,3.12
2019-02-12T10:02:50.957Z,4.10
2019-02-12T10:05:20.967Z,3.08
2019-02-12T10:07:51.104Z,3.50
2019-02-12T10:10:36.338Z,3.65
2019-02-12T10:13:15.609Z,3.80
2019-02-12T10:16:01.989Z,5.03
2019-02-12T10:18:41.169Z,3.87
2019-02-12T10:21:11.233Z,4.45
2019-02-12T10:23:44.553Z,4.62
2019-02-12T10:26:14.617Z,4.50
2019-02-12T10:28:50.922Z,5.30
2019-02-12T10:31:19.737Z,4.87
2019-02-12T10:33:48.408Z,5.35
2019-02-12T10:36:16.961Z,6.92
2019-02-12T10:38:45.497Z,6.60
2019-02-12T10:41:14.021Z,7.05
2019-02-12T10:43:42.497Z,7.58
2019-02-12T10:46:11.085Z,7.53
2019-02-12T10:48:39.605Z,9.30
2019-02-12T10:51:08.153Z,4.40
2019-02-12T10:53:36.666Z,3.77
2019-02-12T10:56:05.205Z,5.40
2019-02-12T10:58:33.663Z,4.78
2019-02-12T11:01:02.277Z,4.22
2019-02-12T11:03:30.789Z,4.60
2019-02-12T11:05:59.336Z,9.63
2019-02-12T11:08:27.862Z,8.50
2019-02-12T11:10:56.413Z,9.78
2019-02-12T11:13:24.957Z,12.25
2019-02-12T11:15:53.503Z,4.80
2019-02-12T11:18:22.011Z,3.90
2019-02-12T11:20:50.628Z,4.72
2019-02-12T11:23:19.264Z,4.42
2019-02-12T11:25:47.845Z,3.75
2019-02-12T11:28:16.322Z,3.87
2019-02-12T11:30:44.940Z,4.42
2019-02-12T11:33:13.462Z,3.40
2019-02-12T11:35:41.972Z,3.95
2019-02-12T11:38:10.446Z,5.17
2019-02-12T11:40:38.910Z,4.60
2019-02-12T11:43:07.809Z,4.45
2019-02-12T11:45:36.278Z,4.37
2019-02-12T11:48:04.900Z,3.98
2019-02-12T11:50:33.410Z,4.33
2019-02-12T11:53:02.088Z,4.03
2019-02-12T11:55:30.802Z,4.45
2019-02-12T11:57:59.401Z,3.33
2019-02-12T12:00:30.130Z,4.60
2019-02-12T12:02:58.619Z,3.58
2019-02-12T12:05:27.161Z,3.33
2019-02-12T12:07:55.706Z,3.37
2019-02-12T12:10:23.954Z,3.30
2019-02-12T12:12:52.258Z,4.40
2019-02-12T12:15:20.694Z,3.80
2019-02-12T12:17:48.989Z,3.50
2019-02-12T12:20:17.651Z,3.67
2019-02-12T12:22:45.924Z,4.40
2019-02-12T12:25:14.342Z,3.60
2019-02-12T12:27:42.618Z,4.10
2019-02-12T12:30:14.794Z,3.83
2019-02-12T12:32:43.228Z,4.30
2019-02-12T12:35:11.811Z,4.77
2019-02-12T12:37:40.075Z,4.97
2019-02-12T12:40:10.815Z,5.57
2019-02-12T12:42:39.064Z,4.57
2019-02-12T12:45:11.326Z,4.37
2019-02-12T12:47:39.575Z,4.67
2019-02-12T12:50:09.345Z,5.63
2019-02-12T12:52:37.587Z,4.80
2019-02-12T12:55:06.747Z,5.10
2019-02-12T12:57:41.578Z,5.47
2019-02-12T13:00:12.556Z,4.70
2019-02-12T13:02:40.917Z,6.57
2019-02-12T13:05:10.979Z,7.07
2019-02-12T13:07:39.396Z,6.10
2019-02-12T13:10:11.762Z,7.47
2019-02-12T13:12:39.995Z,7.40
2019-02-12T13:15:09.673Z,6.37
2019-02-12T13:17:37.914Z,7.57
2019-02-12T13:20:07.681Z,8.77
2019-02-12T13:22:35.921Z,7.23
2019-02-12T13:25:08.701Z,9.50
2019-02-12T13:27:34.699Z,10.03
2019-02-12T13:30:03.609Z,12.20
2019-02-12T13:32:31.869Z,12.60
2019-02-12T13:35:00.631Z,11.95
2019-02-12T13:37:29.194Z,11.57
2019-02-12T13:39:57.829Z,11.00
2019-02-12T13:42:26.302Z,11.50
2019-02-12T13:44:54.547Z,11.80
2019-02-12T13:47:23.137Z,11.70
2019-02-12T13:49:51.501Z,11.47
2019-02-12T13:52:19.754Z,12.10
2019-02-12T13:54:48.007Z,12.43
2019-02-12T13:57:16.280Z,12.30
2019-02-12T13:59:44.776Z,12.75
2019-02-12T14:02:13.352Z,13.62
2019-02-12T14:04:41.886Z,15.23
2019-02-12T14:07:10.433Z,16.87
2019-02-12T14:09:38.886Z,18.40
2019-02-12T14:12:07.628Z,17.77
2019-02-12T14:14:36.206Z,18.60
2019-02-12T14:17:04.772Z,14.58
2019-02-12T14:19:33.302Z,15.75
2019-02-12T14:22:01.964Z,15.35
2019-02-12T14:24:30.508Z,10.50
2019-02-12T14:26:59.082Z,10.32
2019-02-12T14:29:27.618Z,12.03
2019-02-12T14:31:56.264Z,11.80
2019-02-12T14:34:24.790Z,10.55
2019-02-12T14:36:53.372Z,15.20
2019-02-12T14:39:21.989Z,18.32
2019-02-12T14:41:50.520Z,18.00
2019-02-12T14:44:19.141Z,17.62
2019-02-12T14:46:47.687Z,15.90
2019-02-12T14:49:16.244Z,16.23
2019-02-12T14:51:44.741Z,17.95
2019-02-12T14:54:13.356Z,18.55
2019-02-12T14:56:41.896Z,16.70
2019-02-12T14:59:10.442Z,19.25
2019-02-12T15:01:39.393Z,18.95
2019-02-12T15:04:08.305Z,21.80
2019-02-12T15:06:36.929Z,17.80
2019-02-12T15:09:05.502Z,16.60
2019-02-12T15:11:33.965Z,17.15
2019-02-12T15:14:02.557Z,17.57
2019-02-12T15:16:31.077Z,14.68
2019-02-12T15:18:59.708Z,17.07
2019-02-12T15:21:28.242Z,20.82
2019-02-12T15:23:56.812Z,19.27
2019-02-12T15:26:25.350Z,19.57
2019-02-12T15:28:53.831Z,18.45
2019-02-12T15:31:22.478Z,17.15
2019-02-12T15:33:51.149Z,19.05
2019-02-12T15:36:19.676Z,14.63
2019-02-12T15:38:48.234Z,17.57
2019-02-12T15:41:16.865Z,15.43
2019-02-12T15:43:45.522Z,16.65
2019-02-12T15:46:14.050Z,17.17
2019-02-12T15:48:42.591Z,16.90
2019-02-12T15:51:11.181Z,16.97
2019-02-12T15:53:39.728Z,18.17
2019-02-12T15:56:08.266Z,22.75
2019-02-12T15:58:36.962Z,15.83
2019-02-12T16:01:06.096Z,11.68
2019-02-12T16:03:37.719Z,15.95
2019-02-12T16:06:04.863Z,14.15
2019-02-12T16:08:33.336Z,17.10
2019-02-12T16:11:01.914Z,17.82
2019-02-12T16:13:30.472Z,17.02
2019-02-12T16:15:59.058Z,22.05
2019-02-12T16:18:27.700Z,21.37
2019-02-12T16:20:56.366Z,17.10
2019-02-12T16:23:25.146Z,19.70
2019-02-12T16:25:59.365Z,17.50
2019-02-12T16:28:24.190Z,19.60
2019-02-12T16:30:52.766Z,19.90
2019-02-12T16:33:21.286Z,18.90
2019-02-12T16:35:49.786Z,20.27
2019-02-12T16:38:18.255Z,18.98
2019-02-12T16:40:46.756Z,24.18
2019-02-12T16:43:15.306Z,24.43
2019-02-12T16:45:45.412Z,24.52
2019-02-12T16:48:14.042Z,20.05
2019-02-12T16:50:42.642Z,19.45
2019-02-12T16:53:11.321Z,20.15
2019-02-12T16:55:39.876Z,19.92
2019-02-12T16:58:08.425Z,19.90
2019-02-12T17:00:36.960Z,19.73
2019-02-12T17:03:05.579Z,20.12
2019-02-12T17:05:34.116Z,24.27
2019-02-12T17:08:03.143Z,22.17
2019-02-12T17:10:31.821Z,18.00
2019-02-12T17:13:00.573Z,19.52
2019-02-12T17:15:29.458Z,20.80
2019-02-12T17:17:58.037Z,24.25
2019-02-12T17:20:26.584Z,23.70
2019-02-12T17:22:55.138Z,20.60
2019-02-12T17:25:23.728Z,23.40
2019-02-12T17:27:52.302Z,22.50
2019-02-12T17:30:20.831Z,17.60
2019-02-12T17:32:49.417Z,16.48
2019-02-12T17:35:18.089Z,15.50
2019-02-12T17:37:57.157Z,15.63
2019-02-12T17:40:18.515Z,16.42
2019-02-12T17:42:47.175Z,16.57
2019-02-12T17:45:17.277Z,16.40
2019-02-12T17:47:45.905Z,18.37
2019-02-12T17:50:14.770Z,16.85
2019-02-12T17:52:44.469Z,17.65
2019-02-12T17:55:13.171Z,16.95
2019-02-12T17:57:42.788Z,16.23
2019-02-12T18:00:17.472Z,17.45
2019-02-12T18:02:46.381Z,16.50
2019-02-12T18:05:14.944Z,17.95
2019-02-12T18:07:43.532Z,17.48
2019-02-12T18:10:12.107Z,19.85
2019-02-12T18:12:40.743Z,16.95
2019-02-12T18:15:10.532Z,16.90
2019-02-12T18:17:39.168Z,18.60
2019-02-12T18:20:08.823Z,18.55
2019-02-12T18:22:37.446Z,18.92
2019-02-12T18:25:07.511Z,18.25
2019-02-12T18:27:36.084Z,20.12
2019-02-12T18:30:06.165Z,19.75
2019-02-12T18:32:34.783Z,21.77
2019-02-12T18:35:03.471Z,21.45
2019-02-12T18:37:32.095Z,22.27
2019-02-12T18:40:00.720Z,21.55
2019-02-12T18:42:29.329Z,23.70
2019-02-12T18:44:58.001Z,22.77
2019-02-12T18:47:26.630Z,18.35
2019-02-12T18:49:55.314Z,21.33
2019-02-12T18:52:23.958Z,23.47
2019-02-12T18:54:52.590Z,23.50
2019-02-12T18:57:21.072Z,22.10
2019-02-12T18:59:49.877Z,24.65
2019-02-12T19:02:18.403Z,17.95
2019-02-12T19:04:47.549Z,19.62
2019-02-12T19:07:16.716Z,18.45
2019-02-12T19:09:45.323Z,17.25
2019-02-12T19:12:13.893Z,16.05
2019-02-12T19:14:42.479Z,19.32
2019-02-12T19:17:11.009Z,19.92
2019-02-12T19:19:39.655Z,18.15
2019-02-12T19:22:08.183Z,17.73
2019-02-12T19:24:36.827Z,18.30
2019-02-12T19:27:05.424Z,17.10
2019-02-12T19:29:34.390Z,18.55
2019-02-12T19:32:03.115Z,18.20
2019-02-12T19:34:31.785Z,18.67
2019-02-12T19:37:00.339Z,19.35
2019-02-12T19:39:28.936Z,18.32
2019-02-12T19:41:57.458Z,19.02
2019-02-12T19:44:26.039Z,19.67
2019-02-12T19:46:54.556Z,21.50
2019-02-12T19:49:23.095Z,19.77
2019-02-12T19:51:51.660Z,21.48
2019-02-12T19:54:20.198Z,19.85
2019-02-12T19:56:48.822Z,19.37
2019-02-12T19:59:17.629Z,21.80
2019-02-12T20:01:46.290Z,20.10
2019-02-12T20:04:14.847Z,22.70
2019-02-12T20:06:43.486Z,21.97
2019-02-12T20:09:13.704Z,21.85
2019-02-12T20:11:42.337Z,20.95
2019-02-12T20:14:10.797Z,22.50
2019-02-12T20:16:39.361Z,25.27
2019-02-12T20:19:07.912Z,23.85
2019-02-12T20:21:36.518Z,24.90
2019-02-12T20:24:05.289Z,26.42
2019-02-12T20:26:33.931Z,24.77
2019-02-12T20:29:02.532Z,23.80
2019-02-12T20:31:32.019Z,25.92
2019-02-12T20:34:00.529Z,25.45
2019-02-12T20:36:29.220Z,24.02
2019-02-12T20:38:57.752Z,25.45
2019-02-12T20:41:26.333Z,31.85
2019-02-12T20:43:54.857Z,31.68
2019-02-12T20:46:23.470Z,24.05
2019-02-12T20:48:52.020Z,25.92
2019-02-12T20:51:20.686Z,25.10
2019-02-12T20:53:49.410Z,24.98
2019-02-12T20:56:17.927Z,25.35
2019-02-12T20:58:46.408Z,25.92
2019-02-12T21:01:15.007Z,27.67
2019-02-12T21:03:43.596Z,28.15
2019-02-12T21:06:12.226Z,24.47
2019-02-12T21:08:40.763Z,27.10
2019-02-12T21:11:10.358Z,28.27
2019-02-12T21:13:38.940Z,32.42
2019-02-12T21:16:07.787Z,29.55
2019-02-12T21:18:36.402Z,32.48
2019-02-12T21:21:04.994Z,25.65
2019-02-12T21:23:33.530Z,27.67
2019-02-12T21:26:02.138Z,24.18
2019-02-12T21:28:30.678Z,26.23
2019-02-12T21:30:59.254Z,25.97
2019-02-12T21:33:27.782Z,28.10
2019-02-12T21:35:56.343Z,29.65
2019-02-12T21:38:26.585Z,25.25
2019-02-12T21:40:55.301Z,27.82
2019-02-12T21:43:23.914Z,24.50
2019-02-12T21:45:52.464Z,24.80
2019-02-12T21:48:21.037Z,23.70
2019-02-12T21:50:49.607Z,22.00
2019-02-12T21:53:18.145Z,22.05
2019-02-12T21:55:46.714Z,21.80
2019-02-12T21:58:15.179Z,21.15
2019-02-12T22:00:43.750Z,21.30
2019-02-12T22:03:12.337Z,21.75
2019-02-12T22:05:41.076Z,19.65
2019-02-12T22:08:10.835Z,22.48
2019-02-12T22:10:46.200Z,22.07
2019-02-12T22:13:09.617Z,21.30
2019-02-12T22:15:38.196Z,21.40
2019-02-12T22:18:06.727Z,21.20
2019-02-12T22:20:35.266Z,22.70
2019-02-12T22:23:03.825Z,23.42
2019-02-12T22:25:32.357Z,21.65
2019-02-12T22:28:01.014Z,23.20
2019-02-12T22:30:29.635Z,22.10
2019-02-12T22:32:58.206Z,21.10
2019-02-12T22:35:26.843Z,21.80
2019-02-12T22:37:55.391Z,21.50
2019-02-12T22:40:24.028Z,21.90
2019-02-12T22:42:52.876Z,23.22
2019-02-12T22:45:25.655Z,21.80
2019-02-12T22:47:54.798Z,22.30
2019-02-12T22:50:23.451Z,21.45
2019-02-12T22:52:51.997Z,20.88
2019-02-12T22:55:20.574Z,20.97
2019-02-12T22:57:49.752Z,21.85
2019-02-12T23:00:27.093Z,22.20
2019-02-12T23:02:55.702Z,21.93
2019-02-12T23:05:24.603Z,22.85
2019-02-12T23:07:53.197Z,23.38
2019-02-12T23:10:21.699Z,21.93
2019-02-12T23:12:50.265Z,21.50
2019-02-12T23:15:18.816Z,21.30
2019-02-12T23:17:47.352Z,24.35
2019-02-12T23:20:16.092Z,22.85
2019-02-12T23:22:44.629Z,25.05
2019-02-12T23:25:13.278Z,24.15
2019-02-12T23:27:41.820Z,22.75
2019-02-12T23:30:10.533Z,25.20
2019-02-12T23:32:39.176Z,22.70
2019-02-12T23:35:07.813Z,22.55
2019-02-12T23:37:36.604Z,23.80
2019-02-12T23:40:05.708Z,24.00
2019-02-12T23:42:34.377Z,24.23
2019-02-12T23:45:03.108Z,23.50
2019-02-12T23:47:31.672Z,22.70
2019-02-12T23:50:00.331Z,24.75
2019-02-12T23:52:28.901Z,24.00
2019-02-12T23:54:57.688Z,23.92
2019-02-12T23:57:26.312Z,23.10
2019-02-12T23:59:54.950Z,23.83
